.
WxDataArchive / Data Records for 2009-03-06
2009-03-05 March 2009 2009-03-07

Data Records for Friday, 06 March 2009

Time	Temp	Chill	HIndex	Humid	Dewpt	 Wind 	HiWind	WindDir	Rain 	Barom 
-----	----	-----	------	-----	-----	------	------	-------	-----	----- 
00:00	58.7	58.7	58.7	68	48.2	4	11	248	0.00	29.866 
00:05	58.9	58.9	58.9	68	48.4	3	9	248	0.00	29.863 
00:10	58.9	58.9	58.9	68	48.4	3	12	248	0.00	29.866 
00:15	58.9	58.9	58.9	68	48.4	4	7	248	0.00	29.864 
00:20	59.0	59.0	59.0	68	48.5	3	12	248	0.00	29.861 
00:25	59.2	59.2	59.2	68	48.6	4	10	248	0.00	29.861 
00:30	59.2	59.2	59.2	68	48.6	4	9	248	0.00	29.861 
00:35	59.2	59.2	59.2	68	48.6	4	9	248	0.00	29.862 
00:40	59.3	59.3	59.3	68	48.7	4	11	248	0.00	29.861 
00:45	59.3	59.3	59.3	68	48.7	4	9	248	0.00	29.861 
00:50	59.3	59.3	59.3	68	48.7	4	10	248	0.00	29.860 
00:55	59.5	59.5	59.5	68	48.9	6	14	248	0.00	29.857 
01:00	59.6	59.6	59.6	68	49.0	4	10	248	0.00	29.860 
01:05	59.6	59.6	59.6	68	49.0	5	11	248	0.00	29.860 
01:10	59.6	59.6	59.6	68	49.0	4	9	248	0.00	29.859 
01:15	59.6	59.6	59.6	68	49.0	5	12	248	0.00	29.853 
01:20	59.6	59.6	59.6	68	49.0	4	9	270	0.00	29.856 
01:25	59.5	59.5	59.5	69	49.3	5	12	248	0.00	29.852 
01:30	59.5	59.5	59.5	69	49.3	5	14	248	0.00	29.852 
01:35	59.6	59.6	59.6	69	49.4	5	13	270	0.00	29.853 
01:40	59.6	59.6	59.6	69	49.4	6	15	248	0.00	29.854 
01:45	59.6	59.6	59.6	68	49.0	6	14	248	0.00	29.852 
01:50	59.5	59.5	59.5	69	49.3	5	11	248	0.00	29.850 
01:55	59.5	59.5	59.5	69	49.3	4	10	248	0.00	29.850 
02:00	59.3	59.3	59.3	69	49.1	4	11	248	0.00	29.852 
02:05	59.3	59.3	59.3	69	49.1	5	13	248	0.00	29.850 
02:10	59.3	59.3	59.3	69	49.1	5	10	270	0.00	29.849 
02:15	59.3	59.3	59.3	69	49.1	5	12	248	0.00	29.848 
02:20	59.2	59.2	59.2	69	49.0	4	12	248	0.00	29.847 
02:25	59.2	59.2	59.2	70	49.4	6	15	248	0.00	29.846 
02:30	59.2	59.2	59.2	69	49.0	5	13	248	0.00	29.844 
02:35	59.2	59.2	59.2	69	49.0	5	12	248	0.00	29.842 
02:40	59.2	59.2	59.2	70	49.4	5	14	248	0.00	29.838 
02:45	59.0	59.0	59.0	70	49.2	4	9	248	0.00	29.836 
02:50	59.0	59.0	59.0	70	49.2	5	12	270	0.00	29.834 
02:55	59.0	59.0	59.0	70	49.2	5	10	248	0.00	29.836 
03:00	59.0	59.0	59.0	70	49.2	4	9	248	0.00	29.833 
03:05	58.9	58.9	58.9	70	49.1	4	12	248	0.00	29.831 
03:10	58.9	58.9	58.9	70	49.1	4	11	270	0.00	29.828 
03:15	59.0	59.0	59.0	70	49.2	5	13	248	0.00	29.828 
03:20	59.0	59.0	59.0	70	49.2	5	11	248	0.00	29.826 
03:25	59.0	59.0	59.0	70	49.2	4	13	248	0.00	29.830 
03:30	59.0	59.0	59.0	70	49.2	4	10	248	0.00	29.830 
03:35	59.0	59.0	59.0	70	49.2	6	13	248	0.00	29.829 
03:40	59.2	59.2	59.2	70	49.4	6	15	270	0.00	29.827 
03:45	59.2	59.2	59.2	70	49.4	5	18	270	0.00	29.826 
03:50	59.0	59.0	59.0	70	49.2	4	14	270	0.00	29.824 
03:55	59.0	59.0	59.0	71	49.6	5	13	248	0.00	29.817 
04:00	59.0	59.0	59.0	70	49.2	5	12	248	0.00	29.816 
04:05	59.0	59.0	59.0	71	49.6	5	13	248	0.00	29.816 
04:10	59.0	59.0	59.0	70	49.2	5	13	270	0.00	29.814 
04:15	59.0	59.0	59.0	70	49.2	5	12	270	0.00	29.813 
04:20	58.9	58.9	58.9	71	49.5	6	12	270	0.00	29.815 
04:25	58.9	58.9	58.9	71	49.5	5	10	248	0.00	29.814 
04:30	58.7	58.7	58.7	71	49.3	4	10	248	0.00	29.813 
04:35	58.6	58.6	58.6	72	49.6	6	12	270	0.00	29.811 
04:40	58.4	58.4	58.4	71	49.0	4	17	270	0.00	29.815 
04:45	58.4	58.4	58.4	72	49.4	5	14	248	0.00	29.816 
04:50	58.4	58.4	58.4	72	49.4	5	13	248	0.00	29.815 
04:55	58.4	58.4	58.4	72	49.4	5	12	270	0.00	29.815 
05:00	58.1	58.1	58.1	73	49.5	3	8	248	0.00	29.816 
05:05	58.1	58.1	58.1	73	49.5	5	14	248	0.00	29.819 
05:10	58.1	58.1	58.1	73	49.5	5	13	248	0.00	29.818 
05:15	58.1	58.1	58.1	73	49.5	5	12	248	0.00	29.824 
05:20	58.0	58.0	58.0	73	49.4	4	10	248	0.00	29.827 
05:25	58.0	58.0	58.0	73	49.4	5	12	248	0.00	29.828 
05:30	58.1	58.1	58.1	73	49.5	4	10	270	0.00	29.830 
05:35	58.1	58.1	58.1	73	49.5	5	12	248	0.00	29.830 
05:40	58.3	58.3	58.3	73	49.7	4	13	248	0.00	29.831 
05:45	58.3	58.3	58.3	73	49.7	4	10	248	0.00	29.832 
05:50	58.4	58.4	58.4	73	49.8	6	13	248	0.00	29.831 
05:55	58.4	58.4	58.4	73	49.8	5	11	270	0.00	29.835 
06:00	58.6	58.6	58.6	73	50.0	5	13	248	0.00	29.839 
06:05	58.4	58.4	58.4	73	49.8	4	12	248	0.00	29.843 
06:10	58.6	58.6	58.6	73	50.0	5	12	248	0.00	29.843 
06:15	58.7	58.7	58.7	73	50.1	6	16	270	0.00	29.844 
06:20	58.6	58.6	58.6	73	50.0	5	10	248	0.00	29.839 
06:25	58.6	58.6	58.6	73	50.0	6	13	270	0.00	29.841 
06:30	58.4	58.4	58.4	73	49.8	5	13	248	0.00	29.838 
06:35	58.3	58.3	58.3	73	49.7	5	12	248	0.00	29.844 
06:40	58.3	58.3	58.3	74	50.0	5	12	270	0.00	29.844 
06:45	58.3	58.3	58.3	73	49.7	5	11	248	0.00	29.846 
06:50	58.1	58.1	58.1	74	49.9	4	12	248	0.00	29.847 
06:55	58.3	58.3	58.3	74	50.0	5	12	248	0.00	29.849 
07:00	58.1	58.1	58.1	74	49.9	4	13	248	0.00	29.850 
07:05	58.1	58.1	58.1	74	49.9	4	13	248	0.00	29.856 
07:10	58.0	58.0	58.0	74	49.8	4	10	248	0.00	29.858 
07:15	58.0	58.0	58.0	75	50.1	4	10	248	0.00	29.853 
07:20	57.8	57.8	57.8	75	49.9	4	11	270	0.00	29.852 
07:25	57.8	57.8	57.8	75	49.9	4	13	248	0.00	29.851 
07:30	57.8	57.8	57.8	75	49.9	5	10	248	0.00	29.856 
07:35	58.0	58.0	58.0	75	50.1	4	10	248	0.00	29.853 
07:40	58.0	58.0	58.0	75	50.1	3	9	248	0.00	29.856 
07:45	58.1	58.1	58.1	75	50.2	5	11	248	0.00	29.860 
07:50	58.4	58.4	58.4	75	50.5	5	17	248	0.00	29.860 
07:55	58.6	58.6	58.6	74	50.3	5	14	248	0.00	29.861 
08:00	58.4	58.4	58.4	74	50.1	3	9	248	0.00	29.861 
08:05	58.4	58.4	58.4	74	50.1	3	8	270	0.00	29.862 
08:10	58.3	58.3	58.3	74	50.0	5	11	270	0.00	29.863 
08:15	58.3	58.3	58.3	75	50.4	4	12	248	0.00	29.862 
08:20	58.1	58.1	58.1	75	50.2	4	10	248	0.00	29.862 
08:25	58.1	58.1	58.1	75	50.2	4	9	248	0.00	29.863 
08:30	58.1	58.1	58.1	75	50.2	4	11	248	0.00	29.863 
08:35	58.3	58.3	58.3	75	50.4	4	9	248	0.00	29.862 
08:40	58.3	58.3	58.3	75	50.4	4	11	248	0.00	29.863 
08:45	58.4	58.4	58.4	75	50.5	4	9	248	0.00	29.864 
08:50	58.4	58.4	58.4	75	50.5	3	7	248	0.00	29.864 
08:55	58.7	58.7	58.7	75	50.8	3	7	248	0.00	29.865 
09:00	58.9	58.9	58.9	74	50.6	4	9	270	0.00	29.865 
09:05	58.9	58.9	58.9	74	50.6	4	12	248	0.00	29.870 
09:10	59.0	59.0	59.0	74	50.7	3	6	248	0.00	29.871 
09:15	59.0	59.0	59.0	74	50.7	4	11	225	0.00	29.870 
09:20	59.0	59.0	59.0	74	50.7	3	7	248	0.00	29.869 
09:25	59.2	59.2	59.2	74	50.9	4	9	248	0.00	29.868 
09:30	59.2	59.2	59.2	74	50.9	4	13	270	0.00	29.870 
09:35	59.3	59.3	59.3	74	51.0	4	7	248	0.00	29.869 
09:40	59.5	59.5	59.5	74	51.2	4	11	248	0.00	29.872 
09:45	59.6	59.6	59.6	73	50.9	5	11	248	0.00	29.874 
09:50	59.8	59.8	59.8	73	51.1	5	12	248	0.00	29.868 
09:55	59.9	59.9	59.9	73	51.2	4	10	248	0.00	29.871 
10:00	60.1	60.1	60.1	73	51.4	5	15	248	0.00	29.867 
10:05	60.4	60.4	60.4	73	51.7	3	7	248	0.00	29.867 
10:10	60.5	60.5	60.5	73	51.8	4	10	270	0.00	29.870 
10:15	60.5	60.5	60.5	73	51.8	4	13	248	0.00	29.875 
10:20	60.5	60.5	60.5	72	51.4	4	11	248	0.00	29.877 
10:25	60.5	60.5	60.5	73	51.8	6	15	248	0.00	29.880 
10:30	60.4	60.4	60.4	73	51.7	4	10	248	0.00	29.884 
10:35	60.2	60.2	60.2	73	51.5	4	8	248	0.00	29.888 
10:40	60.2	60.2	60.2	73	51.5	3	10	248	0.00	29.891 
10:45	60.2	60.2	60.2	73	51.5	3	7	248	0.00	29.892 
10:50	60.4	60.4	60.4	73	51.7	4	9	270	0.00	29.888 
10:55	60.5	60.5	60.5	73	51.8	3	6	248	0.00	29.883 
11:00	60.9	60.9	60.9	73	52.2	3	12	248	0.00	29.882 
11:05	60.9	60.9	60.9	73	52.2	6	14	248	0.00	29.882 
11:10	61.0	61.0	61.0	73	52.3	7	17	270	0.00	29.883 
11:15	61.0	61.0	61.0	73	52.3	4	9	248	0.00	29.882 
11:20	61.2	61.2	61.2	73	52.5	6	15	270	0.00	29.882 
11:25	61.2	61.2	61.2	73	52.5	6	13	270	0.00	29.885 
11:30	61.2	61.2	61.2	73	52.5	5	13	248	0.00	29.884 
11:35	61.3	61.3	61.3	73	52.6	4	11	270	0.00	29.881 
11:40	61.3	61.3	61.3	73	52.6	5	15	270	0.00	29.885 
11:45	61.3	61.3	61.3	73	52.6	5	16	248	0.00	29.888 
11:50	61.3	61.3	61.3	73	52.6	4	11	270	0.00	29.888 
11:55	61.3	61.3	61.3	73	52.6	3	11	248	0.00	29.887 
12:00	61.3	61.3	61.3	73	52.6	4	10	270	0.00	29.892 
12:05	61.3	61.3	61.3	73	52.6	4	10	248	0.00	29.892 
12:10	61.2	61.2	61.2	73	52.5	5	12	270	0.00	29.894 
12:15	61.2	61.2	61.2	73	52.5	4	7	248	0.00	29.899 
12:20	61.2	61.2	61.2	74	52.8	3	12	270	0.00	29.902 
12:25	61.0	61.0	61.0	74	52.6	2	6	270	0.00	29.905 
12:30	60.9	60.9	60.9	74	52.6	3	6	248	0.00	29.903 
12:35	60.9	60.9	60.9	74	52.6	3	6	248	0.00	29.900 
12:40	60.9	60.9	60.9	74	52.6	3	6	248	0.00	29.904 
12:45	60.9	60.9	60.9	74	52.6	3	7	248	0.00	29.905 
12:50	60.9	60.9	60.9	75	52.9	3	10	270	0.00	29.905 
12:55	60.9	60.9	60.9	75	52.9	3	9	248	0.00	29.906 
13:00	60.9	60.9	60.9	75	52.9	4	10	270	0.00	29.907 
13:05	60.9	60.9	60.9	75	52.9	3	7	248	0.00	29.908 
13:10	60.9	60.9	60.9	76	53.3	2	6	248	0.00	29.907 
13:15	60.9	60.9	60.9	76	53.3	5	11	270	0.00	29.906 
13:20	61.0	61.0	61.0	76	53.4	3	9	248	0.00	29.905 
13:25	61.2	61.2	61.2	75	53.2	3	11	248	0.00	29.905 
13:30	61.2	61.2	61.2	75	53.2	5	10	270	0.00	29.907 
13:35	61.2	61.2	61.2	76	53.6	5	11	270	0.00	29.906 
13:40	61.2	61.2	61.2	75	53.2	4	9	248	0.00	29.902 
13:45	61.3	61.3	61.3	76	53.7	2	6	270	0.00	29.901 
13:50	61.5	61.5	61.5	75	53.5	3	6	248	0.00	29.901 
13:55	61.5	61.5	61.5	75	53.5	4	9	270	0.00	29.901 
14:00	61.5	61.5	61.5	75	53.5	3	6	270	0.00	29.904 
14:05	61.5	61.5	61.5	75	53.5	3	9	270	0.00	29.906 
14:10	61.5	61.5	61.5	75	53.5	4	10	270	0.00	29.907 
14:15	61.3	61.3	61.3	75	53.3	4	14	270	0.00	29.907 
14:20	61.5	61.5	61.5	76	53.9	3	10	270	0.00	29.904 
14:25	61.6	61.6	61.6	76	54.0	3	7	248	0.00	29.900 
14:30	62.0	62.0	62.0	75	54.0	4	7	248	0.00	29.900 
14:35	62.3	62.3	62.3	74	53.9	5	13	248	0.00	29.895 
14:40	62.9	62.9	62.9	73	54.1	3	7	248	0.00	29.896 
14:45	63.2	63.2	63.2	72	54.0	3	9	225	0.00	29.899 
14:50	63.7	63.7	63.7	72	54.5	4	9	248	0.00	29.898 
14:55	63.7	63.7	63.7	71	54.1	4	12	248	0.00	29.900 
15:00	64.2	64.2	64.2	70	54.2	4	11	248	0.00	29.897 
15:05	64.3	64.3	64.3	69	53.9	4	8	248	0.00	29.895 
15:10	64.7	64.7	64.7	69	54.3	4	11	248	0.00	29.890 
15:15	65.0	65.0	65.0	68	54.2	5	9	248	0.00	29.889 
15:20	65.2	65.2	65.2	68	54.4	5	11	248	0.00	29.889 
15:25	65.3	65.3	65.3	68	54.5	5	11	248	0.00	29.889 
15:30	65.6	65.6	65.6	67	54.3	3	11	248	0.00	29.889 
15:35	65.8	65.8	65.8	66	54.1	4	10	248	0.00	29.887 
15:40	65.8	65.8	65.8	66	54.1	5	12	248	0.00	29.884 
15:45	65.6	65.6	65.6	67	54.3	5	13	248	0.00	29.886 
15:50	65.5	65.5	65.5	66	53.8	4	10	248	0.00	29.888 
15:55	65.6	65.6	65.6	67	54.3	4	9	248	0.00	29.888 
16:00	66.0	66.0	66.0	66	54.3	3	11	248	0.00	29.890 
16:05	66.0	66.0	66.0	66	54.3	4	13	248	0.00	29.891 
16:10	65.5	65.5	65.5	67	54.2	5	12	270	0.00	29.895 
16:15	65.5	65.5	65.5	68	54.7	4	10	248	0.00	29.895 
16:20	65.6	65.6	65.6	67	54.3	4	7	248	0.00	29.893 
16:25	65.5	65.5	65.5	68	54.7	3	9	248	0.00	29.893 
16:30	65.6	65.6	65.6	67	54.3	3	8	248	0.00	29.896 
16:35	65.6	65.6	65.6	67	54.3	3	10	248	0.00	29.897 
16:40	65.8	65.8	65.8	67	54.5	4	9	248	0.00	29.904 
16:45	66.0	66.0	66.0	67	54.7	2	5	248	0.00	29.901 
16:50	65.8	65.8	65.8	66	54.1	5	11	248	0.00	29.901 
16:55	65.6	65.6	65.6	66	53.9	4	10	270	0.00	29.901 
17:00	65.6	65.6	65.6	67	54.3	3	7	248	0.00	29.904 
17:05	65.6	65.6	65.6	67	54.3	3	12	248	0.00	29.905 
17:10	65.6	65.6	65.6	67	54.3	3	8	248	0.00	29.906 
17:15	65.5	65.5	65.5	67	54.2	3	9	248	0.00	29.908 
17:20	65.3	65.3	65.3	68	54.5	3	7	248	0.00	29.912 
17:25	65.2	65.2	65.2	68	54.4	4	9	248	0.00	29.912 
17:30	65.0	65.0	65.0	69	54.6	3	6	248	0.00	29.914 
17:35	65.0	65.0	65.0	69	54.6	1	3	248	0.00	29.918 
17:40	64.8	64.8	64.8	69	54.4	3	10	248	0.00	29.920 
17:45	64.8	64.8	64.8	69	54.4	2	7	248	0.00	29.921 
17:50	64.7	64.7	64.7	69	54.3	2	7	248	0.00	29.923 
17:55	64.5	64.5	64.5	69	54.1	2	5	248	0.00	29.925 
18:00	64.3	64.3	64.3	70	54.3	2	6	248	0.00	29.933 
18:05	64.2	64.2	64.2	70	54.2	2	6	248	0.00	29.933 
18:10	63.9	63.9	63.9	71	54.3	2	5	248	0.00	29.936 
18:15	63.7	63.7	63.7	71	54.1	2	6	248	0.00	29.935 
18:20	63.5	63.5	63.5	72	54.3	3	6	248	0.00	29.937 
18:25	63.4	63.4	63.4	72	54.2	1	4	248	0.00	29.938 
18:30	63.1	63.1	63.1	73	54.3	1	4	248	0.00	29.940 
18:35	62.9	62.9	62.9	73	54.1	1	3	248	0.00	29.941 
18:40	62.6	62.6	62.6	74	54.2	1	4	248	0.00	29.944 
18:45	62.3	62.3	62.3	75	54.3	1	4	248	0.00	29.947 
18:50	62.1	62.1	62.1	75	54.1	1	2	248	0.00	29.951 
18:55	61.8	61.8	61.8	76	54.1	1	3	248	0.00	29.956 
19:00	61.5	61.5	61.5	77	54.2	1	2	248	0.00	29.958 
19:05	61.3	61.3	61.3	77	54.0	0	2	248	0.00	29.962 
19:10	61.0	61.0	61.0	77	53.7	0	1	248	0.00	29.965 
19:15	60.7	60.7	60.7	78	53.8	0	1	248	0.00	29.968 
19:20	60.5	60.5	60.5	79	54.0	0	2	248	0.00	29.969 
19:25	60.2	60.2	60.2	79	53.7	0	2	248	0.00	29.971 
19:30	59.9	59.9	59.9	79	53.4	0	1	248	0.00	29.973 
19:35	59.5	59.5	59.5	80	53.3	0	1	248	0.00	29.974 
19:40	59.2	59.2	59.2	82	53.7	0	2	248	0.00	29.982 
19:45	59.0	59.0	59.0	82	53.5	0	2	248	0.00	29.984 
19:50	58.6	58.6	58.6	82	53.1	0	0	---	0.00	29.985 
19:55	58.1	58.1	58.1	82	52.6	0	0	---	0.00	29.988 
20:00	57.6	57.6	57.6	83	52.5	0	0	---	0.00	29.990 
20:05	57.2	57.2	57.2	84	52.4	0	0	---	0.00	29.990 
20:10	56.7	56.7	56.7	85	52.2	0	0	---	0.00	29.990 
20:15	56.5	56.5	56.5	86	52.4	0	2	315	0.00	29.995 
20:20	56.7	56.7	56.7	87	52.9	0	1	315	0.00	29.995 
20:25	56.9	56.9	56.9	85	52.4	0	0	---	0.00	29.999 
20:30	57.0	57.0	57.0	82	51.6	0	3	315	0.00	30.004 
20:35	57.2	57.2	57.2	73	48.6	0	2	338	0.00	30.007 
20:40	57.2	57.2	57.2	67	46.3	0	1	0	0.00	30.010 
20:45	56.9	56.9	56.9	64	44.8	0	0	---	0.00	30.017 
20:50	56.7	56.7	56.7	64	44.7	0	2	0	0.00	30.012 
20:55	56.5	56.5	56.5	63	44.1	0	2	0	0.00	30.020 
21:00	56.3	56.3	56.3	61	43.0	0	2	0	0.00	30.021 
21:05	56.2	56.2	56.2	60	42.5	0	2	0	0.00	30.023 
21:10	56.0	56.0	56.0	60	42.3	0	1	0	0.00	30.024 
21:15	55.9	55.9	55.9	59	41.8	0	1	0	0.00	30.028 
21:20	55.7	55.7	55.7	59	41.6	0	1	0	0.00	30.025 
21:25	55.7	55.7	55.7	60	42.0	0	1	0	0.00	30.028 
21:30	55.4	55.4	55.4	61	42.2	0	1	0	0.00	30.028 
21:35	55.3	55.3	55.3	60	41.7	0	0	---	0.00	30.037 
21:40	55.1	55.1	55.1	61	41.9	0	0	---	0.00	30.036 
21:45	55.0	55.0	55.0	61	41.8	0	0	---	0.00	30.040 
21:50	54.7	54.7	54.7	60	41.1	0	0	---	0.00	30.041 
21:55	54.7	54.7	54.7	59	40.7	0	0	---	0.00	30.040 
22:00	54.5	54.5	54.5	60	40.9	0	0	---	0.00	30.043 
22:05	54.5	54.5	54.5	59	40.5	0	0	---	0.00	30.047 
22:10	54.4	54.4	54.4	59	40.4	0	0	---	0.00	30.052 
22:15	54.2	54.2	54.2	58	39.7	0	0	---	0.00	30.050 
22:20	54.2	54.2	54.2	59	40.2	0	0	---	0.00	30.051 
22:25	54.1	54.1	54.1	59	40.1	0	0	---	0.00	30.050 
22:30	54.1	54.1	54.1	59	40.1	0	0	---	0.00	30.056 
22:35	53.9	53.9	53.9	58	39.5	0	0	---	0.00	30.057 
22:40	53.8	53.8	53.8	58	39.4	0	0	---	0.00	30.057 
22:45	53.8	53.8	53.8	58	39.4	0	0	---	0.00	30.058 
22:50	53.8	53.8	53.8	56	38.5	0	1	0	0.00	30.057 
22:55	53.8	53.8	53.8	55	38.0	0	0	---	0.00	30.058 
23:00	53.9	53.9	53.9	55	38.1	0	0	---	0.00	30.057 
23:05	53.9	53.9	53.9	54	37.6	0	1	0	0.00	30.054 
23:10	53.9	53.9	53.9	55	38.1	0	0	---	0.00	30.056 
23:15	53.8	53.8	53.8	55	38.0	0	0	---	0.00	30.055 
23:20	53.6	53.6	53.6	55	37.8	0	0	---	0.00	30.054 
23:25	53.5	53.5	53.5	55	37.7	0	1	0	0.00	30.056 
23:30	53.5	53.5	53.5	55	37.7	0	0	---	0.00	30.056 
23:35	53.5	53.5	53.5	55	37.7	0	1	0	0.00	30.053 
23:40	53.5	53.5	53.5	55	37.7	0	0	---	0.00	30.052 
23:45	53.3	53.3	53.3	56	38.0	0	0	---	0.00	30.056 
23:50	53.2	53.2	53.2	54	37.0	0	1	0	0.00	30.056 
23:55	53.2	53.2	53.2	54	37.0	0	0	---	0.00	30.057 

CoCoRaHS
IN-AL-39
A2 Web Hosting
Creative Commons License
GoDaddy
search engine by freefind advanced

loaded 2018-11-17 22:23:19 • last modified 2010-11-18 10:43:29
Privacy PolicyDisclaimer
• wx.awcolley.com is powered by PmWiki v.2002016 •
• all content (unless otherwise noted) © 2018 A W Colley